createdAt,value
2023-01-17T00:00:14.725Z,84.80
2023-01-17T00:04:46.380Z,83.64
2023-01-17T00:09:21.511Z,85.11
2023-01-17T00:13:33.872Z,85.19
2023-01-17T00:17:47.466Z,84.57
2023-01-17T00:22:17.983Z,85.15
2023-01-17T00:26:31.664Z,84.89
2023-01-17T00:30:43.904Z,86.30
2023-01-17T00:34:56.125Z,84.04
2023-01-17T00:39:08.344Z,83.27
2023-01-17T00:43:41.510Z,84.04
2023-01-17T00:48:12.229Z,82.72
2023-01-17T00:52:43.029Z,82.79
2023-01-17T00:57:14.055Z,82.39
2023-01-17T01:01:44.856Z,83.69
2023-01-17T01:06:15.751Z,83.00
2023-01-17T01:10:46.728Z,82.30
2023-01-17T01:15:17.408Z,81.31
2023-01-17T01:19:48.128Z,80.56
2023-01-17T01:24:18.592Z,77.10
2023-01-17T01:28:49.188Z,77.94
2023-01-17T01:33:20.339Z,76.81
2023-01-17T01:37:32.698Z,76.39
2023-01-17T01:41:45.023Z,77.17
2023-01-17T01:45:58.999Z,76.17
2023-01-17T01:50:13.318Z,76.78
2023-01-17T01:54:52.231Z,76.28
2023-01-17T01:59:07.426Z,75.82
2023-01-17T02:03:26.241Z,75.85
2023-01-17T02:07:45.281Z,75.44
2023-01-17T02:11:57.893Z,76.20
2023-01-17T02:16:17.123Z,76.13
2023-01-17T02:20:58.924Z,76.25
2023-01-17T02:25:20.248Z,76.92
2023-01-17T02:30:00.488Z,77.83
2023-01-17T02:35:02.176Z,79.43
2023-01-17T02:39:18.106Z,79.51
2023-01-17T02:43:31.835Z,80.46
2023-01-17T02:47:44.294Z,79.82
2023-01-17T02:52:18.008Z,79.34
2023-01-17T02:57:07.155Z,79.05
2023-01-17T03:01:58.432Z,78.72
2023-01-17T03:06:14.195Z,77.82
2023-01-17T03:10:26.777Z,77.30
2023-01-17T03:14:39.158Z,78.07
2023-01-17T03:18:51.662Z,76.65
2023-01-17T03:23:03.986Z,74.92
2023-01-17T03:27:16.438Z,75.16
2023-01-17T03:31:28.756Z,75.89
2023-01-17T03:35:41.078Z,75.48
2023-01-17T03:39:53.568Z,76.15
2023-01-17T03:44:06.032Z,75.93
2023-01-17T03:48:18.959Z,75.85
2023-01-17T03:52:31.373Z,75.47
2023-01-17T03:56:43.701Z,76.27
2023-01-17T04:00:55.971Z,75.00
2023-01-17T04:05:08.851Z,75.54
2023-01-17T04:09:21.115Z,76.01
2023-01-17T04:13:33.581Z,75.97
2023-01-17T04:17:45.817Z,74.85
2023-01-17T04:21:58.135Z,74.97
2023-01-17T04:26:12.483Z,75.62
2023-01-17T04:30:25.048Z,75.32
2023-01-17T04:34:37.354Z,75.38
2023-01-17T04:38:49.712Z,74.63
2023-01-17T04:43:02.035Z,75.40
2023-01-17T04:47:14.310Z,74.90
2023-01-17T04:51:26.615Z,74.89
2023-01-17T04:55:38.938Z,74.37
2023-01-17T04:59:51.464Z,72.72
2023-01-17T05:04:03.821Z,73.38
2023-01-17T05:08:16.272Z,74.22
2023-01-17T05:12:29.028Z,75.50
2023-01-17T05:16:41.369Z,76.90
2023-01-17T05:20:53.734Z,77.54
2023-01-17T05:25:06.472Z,78.98
2023-01-17T05:29:18.803Z,80.34
2023-01-17T05:33:31.147Z,80.40
2023-01-17T05:37:49.369Z,81.60
2023-01-17T05:42:01.679Z,80.72
2023-01-17T05:46:13.987Z,82.01
2023-01-17T05:50:28.706Z,82.50
2023-01-17T05:54:40.902Z,83.13
2023-01-17T05:58:53.141Z,84.11
2023-01-17T06:03:05.906Z,82.79
2023-01-17T06:07:18.314Z,81.88
2023-01-17T06:11:30.523Z,83.38
2023-01-17T06:15:43.032Z,83.83
2023-01-17T06:19:55.362Z,84.66
2023-01-17T06:24:07.829Z,84.17
2023-01-17T06:28:22.051Z,83.60
2023-01-17T06:32:34.464Z,82.76
2023-01-17T06:36:46.820Z,82.78
2023-01-17T06:41:00.692Z,80.36
2023-01-17T06:45:13.275Z,81.33
2023-01-17T06:49:25.605Z,81.34
2023-01-17T06:53:38.046Z,81.81
2023-01-17T06:57:50.933Z,81.24
2023-01-17T07:02:03.317Z,79.35
2023-01-17T07:06:15.721Z,79.34
2023-01-17T07:10:28.094Z,80.35
2023-01-17T07:14:40.436Z,79.90
2023-01-17T07:18:57.187Z,79.34
2023-01-17T07:23:09.548Z,78.33
2023-01-17T07:27:21.876Z,79.32
2023-01-17T07:31:36.900Z,80.62
2023-01-17T07:35:49.174Z,78.89
2023-01-17T07:40:02.750Z,79.33
2023-01-17T07:44:15.016Z,78.67
2023-01-17T07:48:27.500Z,79.04
2023-01-17T07:52:39.823Z,77.17
2023-01-17T07:56:53.320Z,76.10
2023-01-17T08:01:10.731Z,74.50
2023-01-17T08:05:23.512Z,75.31
2023-01-17T08:09:35.844Z,73.92
2023-01-17T08:13:48.893Z,74.78
2023-01-17T08:18:01.224Z,73.98
2023-01-17T08:22:13.669Z,72.63
2023-01-17T08:26:25.890Z,72.14
2023-01-17T08:30:38.475Z,71.86
2023-01-17T08:34:50.865Z,71.82
2023-01-17T08:39:03.230Z,70.94
2023-01-17T08:43:15.774Z,70.70
2023-01-17T08:47:28.290Z,69.86
2023-01-17T08:51:41.357Z,70.57
2023-01-17T08:56:01.400Z,69.68
2023-01-17T09:00:14.195Z,69.43
2023-01-17T09:04:26.770Z,68.41
2023-01-17T09:08:42.006Z,68.91
2023-01-17T09:12:54.402Z,69.31
2023-01-17T09:17:07.351Z,69.53
2023-01-17T09:21:20.046Z,68.16
2023-01-17T09:25:32.440Z,68.17
2023-01-17T09:29:44.794Z,67.66
2023-01-17T09:33:59.076Z,66.61
2023-01-17T09:38:12.073Z,66.72
2023-01-17T09:42:36.480Z,66.86
2023-01-17T09:46:50.490Z,67.00
2023-01-17T09:51:16.238Z,66.66
2023-01-17T09:55:37.746Z,67.84
2023-01-17T10:00:04.898Z,67.26
2023-01-17T10:04:41.612Z,67.08
2023-01-17T10:09:16.468Z,67.88
2023-01-17T10:13:50.477Z,67.76
2023-01-17T10:18:29.861Z,67.35
2023-01-17T10:22:43.441Z,67.74
2023-01-17T10:26:58.590Z,70.22
2023-01-17T10:31:19.543Z,75.71
2023-01-17T10:35:37.306Z,77.08
2023-01-17T10:39:52.995Z,72.95
2023-01-17T10:44:17.158Z,74.02
2023-01-17T10:48:39.003Z,73.44
2023-01-17T10:53:31.316Z,73.52
2023-01-17T10:57:49.355Z,72.08
2023-01-17T11:02:07.704Z,72.76
2023-01-17T11:06:27.678Z,72.77
2023-01-17T11:10:43.679Z,72.81
2023-01-17T11:15:11.210Z,73.29
2023-01-17T11:19:30.775Z,72.48
2023-01-17T11:23:46.193Z,72.92
2023-01-17T11:28:02.876Z,73.50
2023-01-17T11:32:29.744Z,76.16
2023-01-17T11:36:42.472Z,76.73
2023-01-17T11:41:14.801Z,73.40
2023-01-17T11:45:30.209Z,73.21
2023-01-17T11:49:48.310Z,73.01
2023-01-17T11:54:09.534Z,71.19
2023-01-17T11:58:24.333Z,69.80
2023-01-17T12:03:10.727Z,71.19
2023-01-17T12:08:01.725Z,69.62
2023-01-17T12:12:55.049Z,70.20
2023-01-17T12:17:19.889Z,72.14
2023-01-17T12:21:50.870Z,72.71
2023-01-17T12:26:26.108Z,74.94
2023-01-17T12:31:07.470Z,73.80
2023-01-17T12:35:27.319Z,74.56
2023-01-17T12:39:54.741Z,76.43
2023-01-17T12:44:17.153Z,75.54
2023-01-17T12:48:36.341Z,75.88
2023-01-17T12:53:10.942Z,75.04
2023-01-17T12:57:32.373Z,75.83
2023-01-17T13:01:57.962Z,77.00
2023-01-17T13:06:22.530Z,75.11
2023-01-17T13:10:57.351Z,74.75
2023-01-17T13:15:29.284Z,75.37
2023-01-17T13:19:57.981Z,76.24
2023-01-17T13:24:23.055Z,73.75
2023-01-17T13:29:21.266Z,74.27
2023-01-17T13:34:20.168Z,74.05
2023-01-17T13:38:55.089Z,78.13
2023-01-17T13:43:19.063Z,80.30
2023-01-17T13:47:37.587Z,81.01
2023-01-17T13:52:02.181Z,77.92
2023-01-17T13:56:27.468Z,80.19
2023-01-17T14:00:45.712Z,80.43
2023-01-17T14:05:16.247Z,79.36
2023-01-17T14:09:37.866Z,80.07
2023-01-17T14:13:52.125Z,79.81
2023-01-17T14:18:07.697Z,79.90
2023-01-17T14:22:24.279Z,82.79
2023-01-17T14:26:44.036Z,80.16
2023-01-17T14:30:58.267Z,80.84
2023-01-17T14:35:22.529Z,79.79
2023-01-17T14:39:44.558Z,78.98
2023-01-17T14:44:00.245Z,80.02
2023-01-17T14:48:19.960Z,79.50
2023-01-17T14:52:32.341Z,80.99
2023-01-17T14:56:45.008Z,81.00
2023-01-17T15:01:01.456Z,78.39
2023-01-17T15:05:16.333Z,77.82
2023-01-17T15:09:38.510Z,78.20
2023-01-17T15:13:55.156Z,81.51
2023-01-17T15:18:27.002Z,79.23
2023-01-17T15:22:39.529Z,79.05
2023-01-17T15:26:52.553Z,80.84
2023-01-17T15:31:20.448Z,82.01
2023-01-17T15:35:32.885Z,78.92
2023-01-17T15:39:49.895Z,79.90
2023-01-17T15:44:03.108Z,79.64
2023-01-17T15:48:42.046Z,78.34
2023-01-17T15:53:05.041Z,77.57
2023-01-17T15:57:25.000Z,78.32
2023-01-17T16:01:38.968Z,77.71
2023-01-17T16:06:29.664Z,75.57
2023-01-17T16:10:44.081Z,78.86
2023-01-17T16:15:11.228Z,76.62
2023-01-17T16:19:24.870Z,74.55
2023-01-17T16:23:37.223Z,73.06
2023-01-17T16:27:50.333Z,73.79
2023-01-17T16:32:08.946Z,72.43
2023-01-17T16:36:23.195Z,71.28
2023-01-17T16:40:41.559Z,70.33
2023-01-17T16:44:54.063Z,72.25
2023-01-17T16:49:06.383Z,69.28
2023-01-17T16:53:31.781Z,69.85
2023-01-17T16:57:44.891Z,67.72
2023-01-17T17:01:58.766Z,68.23
2023-01-17T17:06:11.844Z,66.61
2023-01-17T17:10:27.934Z,67.15
2023-01-17T17:14:43.561Z,68.09
2023-01-17T17:19:07.067Z,67.41
2023-01-17T17:23:19.384Z,66.68
2023-01-17T17:27:31.966Z,66.35
2023-01-17T17:31:44.446Z,65.49
2023-01-17T17:36:03.127Z,64.63
2023-01-17T17:40:15.994Z,64.78
2023-01-17T17:44:28.612Z,64.80
2023-01-17T17:48:40.983Z,65.13
2023-01-17T17:52:53.363Z,64.42
2023-01-17T17:57:05.817Z,63.77
2023-01-17T18:01:18.289Z,64.10
2023-01-17T18:05:30.829Z,66.85
2023-01-17T18:09:43.618Z,67.15
2023-01-17T18:13:59.394Z,66.55
2023-01-17T18:18:11.914Z,65.59
2023-01-17T18:22:24.669Z,66.17
2023-01-17T18:26:38.623Z,67.95
2023-01-17T18:30:51.091Z,72.73
2023-01-17T18:35:04.231Z,74.48
2023-01-17T18:39:20.091Z,72.37
2023-01-17T18:43:32.823Z,74.27
2023-01-17T18:47:45.278Z,76.19
2023-01-17T18:51:57.720Z,76.62
2023-01-17T18:56:12.830Z,78.32
2023-01-17T19:00:25.186Z,78.10
2023-01-17T19:04:38.698Z,80.11
2023-01-17T19:08:54.260Z,100.00
2023-01-17T19:13:06.775Z,100.00
2023-01-17T19:17:19.236Z,100.00
2023-01-17T19:22:31.004Z,100.00
2023-01-17T19:27:42.371Z,100.00
2023-01-17T19:32:56.276Z,100.00
2023-01-17T19:38:07.314Z,100.00
2023-01-17T19:43:18.454Z,100.00
2023-01-17T19:48:29.894Z,100.00
2023-01-17T19:53:41.502Z,100.00
2023-01-17T19:58:52.657Z,100.00
2023-01-17T20:04:04.041Z,100.00
2023-01-17T20:09:14.996Z,100.00
2023-01-17T20:14:26.006Z,100.00
2023-01-17T20:19:37.027Z,100.00
2023-01-17T20:24:48.644Z,100.00
2023-01-17T20:30:11.118Z,100.00
2023-01-17T20:35:29.726Z,100.00
2023-01-17T20:40:41.363Z,100.00
2023-01-17T20:45:56.112Z,100.00
2023-01-17T20:51:10.769Z,100.00
2023-01-17T20:56:21.865Z,100.00
2023-01-17T21:01:34.662Z,100.00
2023-01-17T21:06:45.731Z,100.00
2023-01-17T21:12:01.635Z,100.00
2023-01-17T21:17:16.377Z,100.00
2023-01-17T21:22:29.784Z,100.00
2023-01-17T21:27:40.649Z,100.00
2023-01-17T21:32:51.537Z,100.00
2023-01-17T21:38:02.554Z,100.00
2023-01-17T21:43:15.487Z,100.00
2023-01-17T21:48:26.974Z,100.00
2023-01-17T21:53:38.895Z,100.00
2023-01-17T21:58:54.019Z,100.00
2023-01-17T22:04:05.042Z,100.00
2023-01-17T22:09:15.984Z,100.00
2023-01-17T22:14:29.605Z,100.00
2023-01-17T22:19:41.344Z,100.00
2023-01-17T22:24:54.295Z,100.00
2023-01-17T22:30:05.692Z,100.00
2023-01-17T22:35:16.614Z,100.00
2023-01-17T22:40:28.139Z,100.00
2023-01-17T22:45:39.111Z,100.00
2023-01-17T22:50:50.055Z,100.00
2023-01-17T22:56:05.437Z,100.00
2023-01-17T23:01:17.404Z,100.00
2023-01-17T23:06:30.799Z,100.00
2023-01-17T23:11:43.556Z,100.00
2023-01-17T23:17:14.427Z,100.00
2023-01-17T23:22:27.233Z,100.00
2023-01-17T23:28:00.628Z,100.00
2023-01-17T23:33:13.227Z,100.00
2023-01-17T23:38:31.024Z,100.00
2023-01-17T23:43:41.920Z,100.00
2023-01-17T23:48:53.170Z,100.00
2023-01-17T23:54:05.696Z,100.00
2023-01-17T23:59:17.134Z,100.00
